createdAt,value
2018-08-17T00:00:15.474Z,21.26
2018-08-17T00:02:44.770Z,21.21
2018-08-17T00:05:14.188Z,21.19
2018-08-17T00:07:43.576Z,21.18
2018-08-17T00:10:12.978Z,21.12
2018-08-17T00:12:42.381Z,21.07
2018-08-17T00:15:11.659Z,21.06
2018-08-17T00:17:40.901Z,21.09
2018-08-17T00:20:10.279Z,21.10
2018-08-17T00:22:39.682Z,21.09
2018-08-17T00:25:08.983Z,21.07
2018-08-17T00:27:38.400Z,21.05
2018-08-17T00:30:08.447Z,20.92
2018-08-17T00:32:37.801Z,20.92
2018-08-17T00:35:07.102Z,20.89
2018-08-17T00:37:36.503Z,20.92
2018-08-17T00:40:08.772Z,20.92
2018-08-17T00:42:38.070Z,20.93
2018-08-17T00:45:07.780Z,20.97
2018-08-17T00:47:37.184Z,20.98
2018-08-17T00:50:06.940Z,20.90
2018-08-17T00:52:36.193Z,20.98
2018-08-17T00:55:05.695Z,20.90
2018-08-17T00:57:35.038Z,20.78
2018-08-17T01:00:05.019Z,20.69
2018-08-17T01:02:34.313Z,20.70
2018-08-17T01:05:03.817Z,20.54
2018-08-17T01:07:33.219Z,20.45
2018-08-17T01:10:02.726Z,20.31
2018-08-17T01:12:32.228Z,20.34
2018-08-17T01:15:04.497Z,20.40
2018-08-17T01:17:33.903Z,20.44
2018-08-17T01:20:03.200Z,20.36
2018-08-17T01:22:32.600Z,20.24
2018-08-17T01:25:02.003Z,20.19
2018-08-17T01:27:31.294Z,19.85
2018-08-17T01:30:00.806Z,19.84
2018-08-17T01:32:30.108Z,19.99
2018-08-17T01:34:59.509Z,20.03
2018-08-17T01:37:28.910Z,20.01
2018-08-17T01:39:58.211Z,20.05
2018-08-17T01:42:27.619Z,20.10
2018-08-17T01:44:57.013Z,20.12
2018-08-17T01:47:26.423Z,20.14
2018-08-17T01:49:55.717Z,20.13
2018-08-17T01:52:25.072Z,20.26
2018-08-17T01:54:54.520Z,20.19
2018-08-17T01:57:23.818Z,20.07
2018-08-17T01:59:53.118Z,19.92
2018-08-17T02:02:22.521Z,19.86
2018-08-17T02:04:52.125Z,19.81
2018-08-17T02:07:21.426Z,19.82
2018-08-17T02:09:50.934Z,19.81
2018-08-17T02:12:20.376Z,19.78
2018-08-17T02:14:49.881Z,19.79
2018-08-17T02:17:19.243Z,19.83
2018-08-17T02:19:48.643Z,19.83
2018-08-17T02:22:18.146Z,19.53
2018-08-17T02:24:47.551Z,19.57
2018-08-17T02:27:16.952Z,19.58
2018-08-17T02:29:46.246Z,19.54
2018-08-17T02:32:15.652Z,19.56
2018-08-17T02:34:44.963Z,19.54
2018-08-17T02:37:14.351Z,19.50
2018-08-17T02:39:43.859Z,19.42
2018-08-17T02:42:13.275Z,19.35
2018-08-17T02:44:42.662Z,19.32
2018-08-17T02:47:12.065Z,19.36
2018-08-17T02:49:41.366Z,19.34
2018-08-17T02:52:10.765Z,19.30
2018-08-17T02:54:40.987Z,19.29
2018-08-17T02:57:10.389Z,19.32
2018-08-17T02:59:39.768Z,19.13
2018-08-17T03:02:09.192Z,18.84
2018-08-17T03:04:38.495Z,18.90
2018-08-17T03:07:07.894Z,18.96
2018-08-17T03:09:37.193Z,18.95
2018-08-17T03:12:06.626Z,18.95
2018-08-17T03:14:36.012Z,18.93
2018-08-17T03:17:05.298Z,18.88
2018-08-17T03:19:34.701Z,18.89
2018-08-17T03:22:04.205Z,18.90
2018-08-17T03:24:33.512Z,18.82
2018-08-17T03:27:02.906Z,18.88
2018-08-17T03:29:32.615Z,18.87
2018-08-17T03:32:02.017Z,18.95
2018-08-17T03:34:31.420Z,18.83
2018-08-17T03:37:00.750Z,18.82
2018-08-17T03:39:30.120Z,18.68
2018-08-17T03:41:59.381Z,18.62
2018-08-17T03:44:28.823Z,18.66
2018-08-17T03:46:58.225Z,18.67
2018-08-17T03:49:27.561Z,18.71
2018-08-17T03:51:56.945Z,18.76
2018-08-17T03:54:26.327Z,18.77
2018-08-17T03:56:55.730Z,18.77
2018-08-17T03:59:25.301Z,18.64
2018-08-17T04:01:54.516Z,18.53
2018-08-17T04:04:23.833Z,18.56
2018-08-17T04:06:53.060Z,18.45
2018-08-17T04:09:22.432Z,18.50
2018-08-17T04:11:51.833Z,18.46
2018-08-17T04:14:21.223Z,18.47
2018-08-17T04:16:50.638Z,18.51
2018-08-17T04:19:20.038Z,18.52
2018-08-17T04:21:49.442Z,18.52
2018-08-17T04:24:18.760Z,18.60
2018-08-17T04:26:48.144Z,18.54
2018-08-17T04:29:17.546Z,18.60
2018-08-17T04:31:46.948Z,18.57
2018-08-17T04:34:16.249Z,18.65
2018-08-17T04:36:51.848Z,18.64
2018-08-17T04:39:21.196Z,18.70
2018-08-17T04:41:50.600Z,18.87
2018-08-17T04:44:20.002Z,19.00
2018-08-17T04:46:49.301Z,19.03
2018-08-17T04:49:18.761Z,18.98
2018-08-17T04:51:47.998Z,19.04
2018-08-17T04:54:17.403Z,19.04
2018-08-17T04:56:46.879Z,19.12
2018-08-17T04:59:16.310Z,19.22
2018-08-17T05:01:45.713Z,19.30
2018-08-17T05:04:15.113Z,19.31
2018-08-17T05:06:44.721Z,19.43
2018-08-17T05:09:14.079Z,19.52
2018-08-17T05:11:43.423Z,19.63
2018-08-17T05:14:12.823Z,19.76
2018-08-17T05:16:42.225Z,19.86
2018-08-17T05:19:11.832Z,19.99
2018-08-17T05:21:41.234Z,20.13
2018-08-17T05:24:10.841Z,20.37
2018-08-17T05:26:40.243Z,20.48
2018-08-17T05:29:09.647Z,20.58
2018-08-17T05:31:39.046Z,21.06
2018-08-17T05:34:08.551Z,20.27
2018-08-17T05:36:37.953Z,22.05
2018-08-17T05:39:08.366Z,22.40
2018-08-17T05:41:37.783Z,22.88
2018-08-17T05:44:07.696Z,22.89
2018-08-17T05:46:37.202Z,22.64
2018-08-17T05:49:06.666Z,22.43
2018-08-17T05:51:35.843Z,22.40
2018-08-17T05:54:05.307Z,22.56
2018-08-17T05:56:34.611Z,22.48
2018-08-17T05:59:03.905Z,22.40
2018-08-17T06:01:33.408Z,21.83
2018-08-17T06:04:02.807Z,21.98
2018-08-17T06:06:32.111Z,22.01
2018-08-17T06:09:01.619Z,22.16
2018-08-17T06:11:31.324Z,22.35
2018-08-17T06:14:00.724Z,22.52
2018-08-17T06:16:30.174Z,22.63
2018-08-17T06:18:59.632Z,22.82
2018-08-17T06:21:31.184Z,22.80
2018-08-17T06:24:04.681Z,22.86
2018-08-17T06:26:34.391Z,22.96
2018-08-17T06:29:03.794Z,23.00
2018-08-17T06:31:33.320Z,22.74
2018-08-17T06:34:02.828Z,22.83
2018-08-17T06:36:32.305Z,22.87
2018-08-17T06:39:01.809Z,22.86
2018-08-17T06:41:31.211Z,23.02
2018-08-17T06:44:00.716Z,23.00
2018-08-17T06:46:30.222Z,23.02
2018-08-17T06:48:59.472Z,23.05
2018-08-17T06:51:29.127Z,23.04
2018-08-17T06:53:58.426Z,23.05
2018-08-17T06:56:27.829Z,23.12
2018-08-17T06:58:57.232Z,22.86
2018-08-17T07:01:26.734Z,23.27
2018-08-17T07:03:56.034Z,23.40
2018-08-17T07:06:25.438Z,23.49
2018-08-17T07:08:55.082Z,23.46
2018-08-17T07:11:24.443Z,23.61
2018-08-17T07:13:54.063Z,23.92
2018-08-17T07:16:23.558Z,23.83
2018-08-17T07:18:52.957Z,23.96
2018-08-17T07:21:22.313Z,23.86
2018-08-17T07:23:51.867Z,23.70
2018-08-17T07:26:21.471Z,23.81
2018-08-17T07:28:50.736Z,24.21
2018-08-17T07:31:20.275Z,24.44
2018-08-17T07:33:49.986Z,24.69
2018-08-17T07:36:19.461Z,24.85
2018-08-17T07:38:48.997Z,24.69
2018-08-17T07:41:19.316Z,24.57
2018-08-17T07:43:48.822Z,24.53
2018-08-17T07:46:18.098Z,24.32
2018-08-17T07:48:47.586Z,24.41
2018-08-17T07:51:17.666Z,24.66
2018-08-17T07:53:47.145Z,24.63
2018-08-17T07:56:16.754Z,24.89
2018-08-17T07:58:46.258Z,25.19
2018-08-17T08:01:16.408Z,25.37
2018-08-17T08:03:45.680Z,25.31
2018-08-17T08:06:15.999Z,25.63
2018-08-17T08:08:45.401Z,25.60
2018-08-17T08:11:15.078Z,25.62
2018-08-17T08:13:44.392Z,25.95
2018-08-17T08:16:13.802Z,25.87
2018-08-17T08:18:43.327Z,26.40
2018-08-17T08:21:12.623Z,26.79
2018-08-17T08:23:42.182Z,26.85
2018-08-17T08:26:11.658Z,27.14
2018-08-17T08:28:40.940Z,27.55
2018-08-17T08:31:10.429Z,27.68
2018-08-17T08:33:39.940Z,27.86
2018-08-17T08:36:09.334Z,27.98
2018-08-17T08:38:39.147Z,27.94
2018-08-17T08:41:08.652Z,28.07
2018-08-17T08:43:38.467Z,28.01
2018-08-17T08:46:08.992Z,28.43
2018-08-17T08:48:38.701Z,28.35
2018-08-17T08:51:08.067Z,28.17
2018-08-17T08:53:37.607Z,28.02
2018-08-17T08:56:08.044Z,28.41
2018-08-17T08:58:37.505Z,29.00
2018-08-17T09:01:08.038Z,29.37
2018-08-17T09:03:37.775Z,29.56
2018-08-17T09:06:07.396Z,29.23
2018-08-17T09:08:36.890Z,29.21
2018-08-17T09:11:06.452Z,29.11
2018-08-17T09:13:36.224Z,29.37
2018-08-17T09:16:05.851Z,29.49
2018-08-17T09:18:35.212Z,29.33
2018-08-17T09:21:04.822Z,29.82
2018-08-17T09:23:34.325Z,30.00
2018-08-17T09:26:04.133Z,30.27
2018-08-17T09:28:33.845Z,30.48
2018-08-17T09:31:03.347Z,30.35
2018-08-17T09:33:32.954Z,30.12
2018-08-17T09:36:02.611Z,30.15
2018-08-17T09:38:32.278Z,30.38
2018-08-17T09:41:02.747Z,30.58
2018-08-17T09:43:32.201Z,30.20
2018-08-17T09:46:01.578Z,30.36
2018-08-17T09:48:30.906Z,30.37
2018-08-17T09:51:00.405Z,30.68
2018-08-17T09:53:29.917Z,31.02
2018-08-17T09:55:59.221Z,31.05
2018-08-17T09:58:29.330Z,31.21
2018-08-17T10:01:04.003Z,31.26
2018-08-17T10:03:49.801Z,31.31
2018-08-17T10:06:24.193Z,31.61
2018-08-17T10:08:59.299Z,31.59
2018-08-17T10:11:28.802Z,31.24
2018-08-17T10:13:58.307Z,31.49
2018-08-17T10:16:27.754Z,31.39
2018-08-17T10:18:57.212Z,31.42
2018-08-17T10:21:26.896Z,31.23
2018-08-17T10:23:55.964Z,31.31
2018-08-17T10:26:25.240Z,31.70
2018-08-17T10:28:54.641Z,31.58
2018-08-17T10:31:23.975Z,31.89
2018-08-17T10:33:53.271Z,32.31
2018-08-17T10:36:22.720Z,32.15
2018-08-17T10:38:52.083Z,32.52
2018-08-17T10:41:21.526Z,32.44
2018-08-17T10:43:50.831Z,32.38
2018-08-17T10:46:20.139Z,32.02
2018-08-17T10:48:49.446Z,31.77
2018-08-17T10:51:18.738Z,31.65
2018-08-17T10:53:48.431Z,31.37
2018-08-17T10:56:17.908Z,31.58
2018-08-17T10:58:47.335Z,31.25
2018-08-17T11:01:16.580Z,31.14
2018-08-17T11:03:46.246Z,31.29
2018-08-17T11:06:15.556Z,31.40
2018-08-17T11:08:44.948Z,31.43
2018-08-17T11:11:14.596Z,31.86
2018-08-17T11:13:44.057Z,32.08
2018-08-17T11:16:13.306Z,32.17
2018-08-17T11:18:42.856Z,31.80
2018-08-17T11:21:12.468Z,32.21
2018-08-17T11:23:41.875Z,32.30
2018-08-17T11:26:11.480Z,32.03
2018-08-17T11:28:40.752Z,31.90
2018-08-17T11:31:10.384Z,32.19
2018-08-17T11:33:39.889Z,32.21
2018-08-17T11:36:09.399Z,32.20
2018-08-17T11:38:38.800Z,32.61
2018-08-17T11:41:10.652Z,32.96
2018-08-17T11:43:40.264Z,33.14
2018-08-17T11:46:10.896Z,32.78
2018-08-17T11:48:40.400Z,32.93
2018-08-17T11:51:09.632Z,32.54
2018-08-17T11:53:39.015Z,32.71
2018-08-17T11:56:08.264Z,33.25
2018-08-17T11:58:37.566Z,33.54
2018-08-17T12:01:38.469Z,33.18
2018-08-17T12:04:07.737Z,33.74
2018-08-17T12:06:37.341Z,33.34
2018-08-17T12:09:08.135Z,33.07
2018-08-17T12:11:37.743Z,32.41
2018-08-17T12:14:09.233Z,32.56
2018-08-17T12:16:40.923Z,32.70
2018-08-17T12:19:10.495Z,32.89
2018-08-17T12:21:39.957Z,33.08
2018-08-17T12:24:09.446Z,33.36
2018-08-17T12:26:44.091Z,33.80
2018-08-17T12:29:13.735Z,33.08
2018-08-17T12:31:43.239Z,32.93
2018-08-17T12:34:12.745Z,33.81
2018-08-17T12:36:42.243Z,34.41
2018-08-17T12:39:11.855Z,34.72
2018-08-17T12:41:41.442Z,34.55
2018-08-17T12:44:11.071Z,34.51
2018-08-17T12:46:40.577Z,33.95
2018-08-17T12:49:10.181Z,33.77
2018-08-17T12:51:39.705Z,34.07
2018-08-17T12:54:11.791Z,34.16
2018-08-17T12:56:41.253Z,34.52
2018-08-17T12:59:10.639Z,34.16
2018-08-17T13:01:40.071Z,34.34
2018-08-17T13:04:09.461Z,34.65
2018-08-17T13:06:39.169Z,34.80
2018-08-17T13:09:08.865Z,34.92
2018-08-17T13:11:42.692Z,34.87
2018-08-17T13:14:12.775Z,34.71
2018-08-17T13:16:43.429Z,34.61
2018-08-17T13:19:13.040Z,34.86
2018-08-17T13:21:42.386Z,34.81
2018-08-17T13:24:11.849Z,34.40
2018-08-17T13:26:41.452Z,34.63
2018-08-17T13:29:10.955Z,34.53
2018-08-17T13:31:40.329Z,34.76
2018-08-17T13:34:09.759Z,34.72
2018-08-17T13:36:39.318Z,34.61
2018-08-17T13:39:10.132Z,34.48
2018-08-17T13:41:39.809Z,34.77
2018-08-17T13:44:11.491Z,34.94
2018-08-17T13:46:40.968Z,34.89
2018-08-17T13:49:10.303Z,34.98
2018-08-17T13:51:39.884Z,35.05
2018-08-17T13:54:09.485Z,35.00
2018-08-17T13:56:39.703Z,34.93
2018-08-17T13:59:09.105Z,34.33
2018-08-17T14:01:38.608Z,34.47
2018-08-17T14:04:08.216Z,34.67
2018-08-17T14:06:37.824Z,34.86
2018-08-17T14:09:08.227Z,34.71
2018-08-17T14:11:37.652Z,34.68
2018-08-17T14:14:07.106Z,34.70
2018-08-17T14:16:36.424Z,34.88
2018-08-17T14:19:06.065Z,34.55
2018-08-17T14:21:35.473Z,34.80
2018-08-17T14:24:04.981Z,34.56
2018-08-17T14:26:34.676Z,34.34
2018-08-17T14:29:03.963Z,34.04
2018-08-17T14:31:33.379Z,33.76
2018-08-17T14:34:02.734Z,33.57
2018-08-17T14:36:32.183Z,33.55
2018-08-17T14:39:01.586Z,33.08
2018-08-17T14:41:31.046Z,32.82
2018-08-17T14:44:00.596Z,32.71
2018-08-17T14:46:30.004Z,32.86
2018-08-17T14:48:59.610Z,32.61
2018-08-17T14:51:29.019Z,32.24
2018-08-17T14:53:58.511Z,32.25
2018-08-17T14:56:27.912Z,32.24
2018-08-17T14:58:57.265Z,32.50
2018-08-17T15:01:26.819Z,32.98
2018-08-17T15:03:56.202Z,33.19
2018-08-17T15:06:25.623Z,33.22
2018-08-17T15:08:55.230Z,33.12
2018-08-17T15:11:24.836Z,32.76
2018-08-17T15:13:54.341Z,32.91
2018-08-17T15:16:23.845Z,32.59
2018-08-17T15:18:53.498Z,32.30
2018-08-17T15:21:23.059Z,32.31
2018-08-17T15:23:52.666Z,32.06
2018-08-17T15:26:22.278Z,32.05
2018-08-17T15:28:51.778Z,31.82
2018-08-17T15:31:21.384Z,31.57
2018-08-17T15:33:50.997Z,31.83
2018-08-17T15:36:20.474Z,31.98
2018-08-17T15:38:50.167Z,32.08
2018-08-17T15:41:19.838Z,32.12
2018-08-17T15:43:49.316Z,32.13
2018-08-17T15:46:18.894Z,32.33
2018-08-17T15:48:52.319Z,32.45
2018-08-17T15:51:22.151Z,32.38
2018-08-17T15:53:51.628Z,32.27
2018-08-17T15:56:22.266Z,32.04
2018-08-17T15:58:51.667Z,32.07
2018-08-17T16:01:21.303Z,31.90
2018-08-17T16:03:50.985Z,32.03
2018-08-17T16:06:20.452Z,31.74
2018-08-17T16:08:49.993Z,31.68
2018-08-17T16:11:19.636Z,31.68
2018-08-17T16:13:50.129Z,31.67
2018-08-17T16:16:19.743Z,31.91
2018-08-17T16:18:49.344Z,31.56
2018-08-17T16:21:18.748Z,31.50
2018-08-17T16:23:48.249Z,31.70
2018-08-17T16:26:17.754Z,31.87
2018-08-17T16:28:47.258Z,32.05
2018-08-17T16:31:16.658Z,31.58
2018-08-17T16:33:46.369Z,31.64
2018-08-17T16:36:15.893Z,31.37
2018-08-17T16:38:45.481Z,31.15
2018-08-17T16:41:15.319Z,31.10
2018-08-17T16:43:47.872Z,31.20
2018-08-17T16:46:18.099Z,31.14
2018-08-17T16:48:49.006Z,30.95
2018-08-17T16:51:18.540Z,30.38
2018-08-17T16:53:48.555Z,30.00
2018-08-17T16:56:18.876Z,29.94
2018-08-17T16:58:48.378Z,30.15
2018-08-17T17:01:17.776Z,30.43
2018-08-17T17:03:47.182Z,30.25
2018-08-17T17:06:16.635Z,30.23
2018-08-17T17:08:46.297Z,30.08
2018-08-17T17:11:15.745Z,29.89
2018-08-17T17:13:45.143Z,29.51
2018-08-17T17:16:14.505Z,29.27
2018-08-17T17:18:43.969Z,29.20
2018-08-17T17:21:13.306Z,29.22
2018-08-17T17:23:52.443Z,28.99
2018-08-17T17:26:22.144Z,28.89
2018-08-17T17:28:51.451Z,28.76
2018-08-17T17:31:24.306Z,28.92
2018-08-17T17:33:54.027Z,28.99
2018-08-17T17:36:23.526Z,28.95
2018-08-17T17:38:54.028Z,28.94
2018-08-17T17:41:23.367Z,28.60
2018-08-17T17:43:52.780Z,28.13
2018-08-17T17:46:22.430Z,27.83
2018-08-17T17:48:51.750Z,27.53
2018-08-17T17:51:21.183Z,27.62
2018-08-17T17:53:50.541Z,27.23
2018-08-17T17:56:20.089Z,27.01
2018-08-17T17:58:49.592Z,26.79
2018-08-17T18:01:19.096Z,26.55
2018-08-17T18:03:48.602Z,26.35
2018-08-17T18:06:18.004Z,26.07
2018-08-17T18:08:47.508Z,26.07
2018-08-17T18:11:16.909Z,26.06
2018-08-17T18:13:46.391Z,25.90
2018-08-17T18:16:15.919Z,25.69
2018-08-17T18:18:45.300Z,25.48
2018-08-17T18:21:14.825Z,25.31
2018-08-17T18:23:45.307Z,25.27
2018-08-17T18:26:21.925Z,25.12
2018-08-17T18:28:51.325Z,24.97
2018-08-17T18:31:21.239Z,25.05
2018-08-17T18:33:50.722Z,24.94
2018-08-17T18:36:20.088Z,24.87
2018-08-17T18:38:49.548Z,24.62
2018-08-17T18:41:19.053Z,24.26
2018-08-17T18:43:49.171Z,24.31
2018-08-17T18:46:18.881Z,24.33
2018-08-17T18:48:48.183Z,24.19
2018-08-17T18:51:17.685Z,24.10
2018-08-17T18:53:47.086Z,23.96
2018-08-17T18:56:17.868Z,24.06
2018-08-17T18:58:47.324Z,23.67
2018-08-17T19:01:16.840Z,23.52
2018-08-17T19:03:47.316Z,23.61
2018-08-17T19:06:16.641Z,23.52
2018-08-17T19:08:46.061Z,23.57
2018-08-17T19:11:15.344Z,23.67
2018-08-17T19:13:44.633Z,23.73
2018-08-17T19:16:14.096Z,23.71
2018-08-17T19:18:43.491Z,23.90
2018-08-17T19:21:14.491Z,24.06
2018-08-17T19:23:43.949Z,23.93
2018-08-17T19:26:13.518Z,23.74
2018-08-17T19:28:43.222Z,23.70
2018-08-17T19:31:12.727Z,23.43
2018-08-17T19:33:42.231Z,23.42
2018-08-17T19:36:11.799Z,23.41
2018-08-17T19:38:43.088Z,23.40
2018-08-17T19:41:12.486Z,23.14
2018-08-17T19:43:41.957Z,23.21
2018-08-17T19:46:11.950Z,23.23
2018-08-17T19:48:41.388Z,23.33
2018-08-17T19:51:15.974Z,23.35
2018-08-17T19:53:45.808Z,23.44
2018-08-17T19:56:15.981Z,23.18
2018-08-17T19:58:45.406Z,23.23
2018-08-17T20:01:14.839Z,22.99
2018-08-17T20:03:44.207Z,23.10
2018-08-17T20:06:13.676Z,23.02
2018-08-17T20:08:43.245Z,22.90
2018-08-17T20:11:12.785Z,22.87
2018-08-17T20:13:42.425Z,22.68
2018-08-17T20:16:21.555Z,22.46
2018-08-17T20:18:51.429Z,22.66
2018-08-17T20:21:22.996Z,22.58
2018-08-17T20:23:52.329Z,22.63
2018-08-17T20:26:22.649Z,22.64
2018-08-17T20:28:51.875Z,22.70
2018-08-17T20:31:21.337Z,22.61
2018-08-17T20:33:50.723Z,22.68
2018-08-17T20:58:44.173Z,22.15
2018-08-17T21:01:13.526Z,22.10
2018-08-17T21:03:42.919Z,22.20
2018-08-17T21:06:12.311Z,22.13
2018-08-17T21:08:41.869Z,22.25
2018-08-17T21:11:11.281Z,22.30
2018-08-17T21:13:40.943Z,22.28
2018-08-17T21:16:10.480Z,22.33
2018-08-17T21:18:39.807Z,22.10
2018-08-17T21:21:09.259Z,22.24
2018-08-17T21:23:38.712Z,22.27
2018-08-17T21:26:08.264Z,22.08
2018-08-17T21:28:37.606Z,22.04
2018-08-17T21:31:06.968Z,21.89
2018-08-17T21:33:37.762Z,22.07
2018-08-17T21:36:07.406Z,22.16
2018-08-17T21:38:36.859Z,22.27
2018-08-17T21:41:08.013Z,22.36
2018-08-17T21:43:37.417Z,22.42
2018-08-17T21:46:07.369Z,22.56
2018-08-17T21:48:38.819Z,22.75
2018-08-17T21:51:08.329Z,22.72
2018-08-17T21:53:37.782Z,22.78
2018-08-17T21:56:07.332Z,22.91
2018-08-17T21:58:36.833Z,22.98
2018-08-17T22:01:06.748Z,23.14
2018-08-17T22:03:36.971Z,23.06
2018-08-17T22:06:06.617Z,23.11
2018-08-17T22:08:36.187Z,23.14
2018-08-17T22:11:05.691Z,23.15
2018-08-17T22:13:36.217Z,23.10
2018-08-17T22:16:05.582Z,23.03
2018-08-17T22:18:34.943Z,22.96
2018-08-17T22:21:04.530Z,22.81
2018-08-17T22:23:33.929Z,22.81
2018-08-17T22:26:03.497Z,22.65
2018-08-17T22:28:32.969Z,22.73
2018-08-17T22:31:02.443Z,22.70
2018-08-17T22:33:32.050Z,22.71
2018-08-17T22:36:01.657Z,22.64
2018-08-17T22:38:35.098Z,22.60
2018-08-17T22:41:04.557Z,22.66
2018-08-17T22:43:33.856Z,22.69
2018-08-17T22:46:03.461Z,22.68
2018-08-17T22:48:32.798Z,22.57
2018-08-17T22:51:02.064Z,22.56
2018-08-17T22:53:31.464Z,22.64
2018-08-17T22:56:00.968Z,22.57
2018-08-17T22:58:34.348Z,22.55
2018-08-17T23:01:03.638Z,22.50
2018-08-17T23:03:33.766Z,22.52
2018-08-17T23:06:03.185Z,22.56
2018-08-17T23:08:32.409Z,22.51
2018-08-17T23:11:01.761Z,22.55
2018-08-17T23:13:31.187Z,22.60
2018-08-17T23:16:00.692Z,22.44
2018-08-17T23:18:29.929Z,22.53
2018-08-17T23:20:59.248Z,22.44
2018-08-17T23:23:28.526Z,22.13
2018-08-17T23:25:58.094Z,22.38
2018-08-17T23:28:27.498Z,22.15
2018-08-17T23:30:56.852Z,22.21
2018-08-17T23:33:26.326Z,22.22
2018-08-17T23:35:55.663Z,22.19
2018-08-17T23:38:25.099Z,22.32
2018-08-17T23:40:54.712Z,22.37
2018-08-17T23:43:24.158Z,22.40
2018-08-17T23:45:53.823Z,21.98
2018-08-17T23:48:23.292Z,21.56
2018-08-17T23:50:52.840Z,21.54
2018-08-17T23:53:22.383Z,21.54
2018-08-17T23:55:51.783Z,21.57
2018-08-17T23:58:21.205Z,21.39
